Flag for USA

Past Weather in 39°14'14"N, 84°46'59"W, USA — Yesterday and Last 2 Weeks

Currently: 44 °F. Light rain. Fog. (Weather station: Cincinnati Municipal Airport Lunken Field, USA). See more current weather

Past Weather in 39°14'14"N, 84°46'59"W — Graph

°F

39°14'14"N, 84°46'59"W Temperature Yesterday

Maximum temperature yesterday: 56 °F (at 1:53 pm)
Minimum temperature yesterday: 26 °F (at 2:53 am)
Average temperature yesterday: 36 °F

High & Low Weather Summary for the Past Weeks

 TemperatureHumidityPressure
High65 °F (Nov 24, 2:53 pm)100% (Nov 25, 4:34 am)30.53 "Hg (Nov 25, 4:34 am)
Low16 °F (Nov 21, 5:53 am)21% (Nov 21, 2:53 pm)29.75 "Hg (Nov 27, 1:53 am)
Average35 °F70%30.24 "Hg
* Reported Nov 12 1:53 am — Nov 27 1:53 am, 39°14'14"N, 84°46'59"W. Weather by CustomWeather, © 2022

Note: Actual official high and low records may vary slightly from our data, if they occured in-between our weather recording intervals... More about our weather records

39°14'14"N, 84°46'59"W Weather History for the Previous 24 Hours

Scroll right to see more
 ConditionsComfort  
Time TempWeatherWind HumidityBarometerVisibility
1:53 am
Sun, Nov 27
44 °FLight rain. Fog.No wind96%29.75 "Hg4 mi
12:53 am43 °FRain. Fog.No wind100%29.81 "Hg3 mi
11:53 pm
Sat, Nov 26
43 °FLight rain. Fog.No wind97%29.86 "Hg4 mi
10:53 pm45 °FLight rain. Overcast.3 mph76%29.90 "Hg6 mi
9:53 pm40 °FClear.No wind86%29.91 "Hg9 mi
8:53 pm39 °FClear.3 mph86%29.96 "Hg10 mi
7:53 pm40 °FClear.No wind83%29.97 "Hg10 mi
5:53 pm46 °FClear.No wind66%30.02 "Hg10 mi
4:53 pm53 °FSunny.5 mph45%30.03 "Hg10 mi
3:53 pm55 °FSunny.3 mph45%30.04 "Hg10 mi
2:53 pm56 °FSunny.6 mph42%30.06 "Hg10 mi
1:53 pm56 °FSunny.3 mph44%30.08 "Hg10 mi
12:53 pm54 °FSunny.5 mph53%30.12 "Hg10 mi
11:53 am49 °FSunny.3 mph64%30.17 "Hg8 mi
10:53 am39 °FFog.No wind93%30.21 "Hg4 mi
10:42 am38 °FFog.No wind97%30.21 "Hg4 mi
10:10 am34 °FFog.No wind100%30.22 "Hg0 mi
8:53 am29 °FIce fog.No wind100%30.24 "Hg0 mi
7:53 am28 °FIce fog.3 mph96%30.25 "Hg0 mi
6:53 am28 °FIce fog.No wind100%30.24 "Hg0 mi
6:08 am29 °FIce fog.No wind96%30.23 "Hg0 mi
4:53 am27 °FIce fog.No wind100%30.24 "Hg0 mi
4:31 am28 °FIce fog.No wind100%30.23 "Hg0 mi
4:10 am28 °FIce fog.No wind93%30.23 "Hg0 mi
3:53 am27 °FIce fog.No wind100%30.24 "Hg0 mi
3:21 am27 °FIce fog.No wind92%30.24 "Hg0 mi
Weather by CustomWeather, © 2022

See weather overview